createdAt,value
2023-02-23T00:02:08.294Z,14.02
2023-02-23T00:04:36.667Z,16.67
2023-02-23T00:07:06.544Z,14.90
2023-02-23T00:09:37.362Z,13.02
2023-02-23T00:12:09.859Z,12.07
2023-02-23T00:14:38.854Z,17.08
2023-02-23T00:17:15.059Z,12.95
2023-02-23T00:19:46.159Z,12.68
2023-02-23T00:22:13.737Z,13.82
2023-02-23T00:24:43.150Z,12.35
2023-02-23T00:27:13.641Z,13.27
2023-02-23T00:29:41.198Z,12.32
2023-02-23T00:32:09.084Z,11.68
2023-02-23T00:34:37.402Z,13.50
2023-02-23T00:37:05.353Z,9.27
2023-02-23T00:39:33.002Z,7.90
2023-02-23T00:42:03.499Z,16.95
2023-02-23T00:44:34.204Z,12.75
2023-02-23T00:47:03.625Z,13.57
2023-02-23T00:49:31.192Z,15.05
2023-02-23T00:51:58.891Z,10.70
2023-02-23T00:54:26.619Z,16.35
2023-02-23T00:56:54.213Z,18.67
2023-02-23T00:59:23.525Z,11.68
2023-02-23T01:01:51.618Z,9.20
2023-02-23T01:04:23.472Z,15.82
2023-02-23T01:06:51.157Z,15.35
2023-02-23T01:09:34.017Z,16.08
2023-02-23T01:12:07.762Z,12.43
2023-02-23T01:14:37.987Z,12.65
2023-02-23T01:17:05.759Z,15.00
2023-02-23T01:19:34.597Z,16.98
2023-02-23T01:22:04.174Z,12.73
2023-02-23T01:24:31.690Z,7.30
2023-02-23T01:26:59.408Z,8.98
2023-02-23T01:29:27.847Z,14.90
2023-02-23T01:31:55.555Z,8.32
2023-02-23T01:34:25.160Z,11.43
2023-02-23T01:36:52.735Z,7.57
2023-02-23T01:39:21.941Z,10.55
2023-02-23T01:41:52.337Z,10.68
2023-02-23T01:44:22.468Z,8.48
2023-02-23T01:46:50.557Z,10.48
2023-02-23T01:49:28.304Z,14.88
2023-02-23T01:52:03.329Z,5.50
2023-02-23T01:54:36.662Z,13.00
2023-02-23T01:57:06.537Z,11.57
2023-02-23T01:59:41.072Z,4.53
2023-02-23T02:02:08.795Z,6.53
2023-02-23T02:04:44.914Z,0.98
2023-02-23T02:07:16.612Z,5.63
2023-02-23T02:10:18.104Z,5.68
2023-02-23T02:12:52.240Z,3.47
2023-02-23T02:15:22.732Z,14.73
2023-02-23T02:17:54.071Z,4.03
2023-02-23T02:20:37.843Z,6.13
2023-02-23T02:23:21.165Z,8.38
2023-02-23T02:29:27.039Z,6.45
2023-02-23T02:32:38.054Z,8.60
2023-02-23T02:35:23.099Z,9.75
2023-02-23T02:38:28.096Z,12.07
2023-02-23T02:41:04.092Z,5.53
2023-02-23T02:43:43.215Z,8.75
2023-02-23T02:46:48.576Z,6.95
2023-02-23T02:49:49.318Z,8.25
2023-02-23T02:53:01.846Z,5.32
2023-02-23T02:55:37.797Z,12.95
2023-02-23T02:58:08.766Z,2.90
2023-02-23T03:00:57.672Z,5.57
2023-02-23T03:03:56.592Z,3.72
2023-02-23T03:07:11.979Z,7.57
2023-02-23T03:10:40.782Z,3.55
2023-02-23T03:13:42.170Z,1.50
2023-02-23T03:16:53.693Z,10.07
2023-02-23T03:19:55.787Z,3.33
2023-02-23T03:22:59.924Z,11.25
2023-02-23T03:26:04.893Z,1.55
2023-02-23T03:29:00.617Z,0.85
2023-02-23T03:32:07.373Z,0.30
2023-02-23T03:35:14.795Z,8.68
2023-02-23T03:38:18.834Z,7.68
2023-02-23T03:41:08.436Z,1.05
2023-02-23T03:44:01.775Z,5.25
2023-02-23T03:46:50.868Z,2.08
2023-02-23T03:49:39.770Z,10.63
2023-02-23T03:52:37.167Z,1.50
2023-02-23T03:55:35.436Z,0.40
2023-02-23T03:58:23.298Z,11.07
2023-02-23T04:01:11.639Z,0.75
2023-02-23T04:04:03.448Z,1.15
2023-02-23T04:06:56.715Z,16.52
2023-02-23T04:09:42.961Z,8.55
2023-02-23T04:12:37.081Z,8.75
2023-02-23T04:15:36.192Z,15.27
2023-02-23T04:18:13.039Z,15.57
2023-02-23T04:20:40.614Z,12.35
2023-02-23T04:23:08.232Z,8.95
2023-02-23T04:25:36.270Z,7.72
2023-02-23T04:28:03.941Z,1.73
2023-02-23T04:30:31.854Z,2.90
2023-02-23T04:32:59.691Z,16.70
2023-02-23T04:35:30.183Z,10.02
2023-02-23T04:37:59.238Z,2.75
2023-02-23T04:40:27.933Z,12.23
2023-02-23T04:42:55.917Z,6.38
2023-02-23T04:45:25.144Z,7.68
2023-02-23T04:47:53.375Z,3.85
2023-02-23T04:50:21.734Z,16.05
2023-02-23T04:52:49.324Z,4.75
2023-02-23T04:55:25.568Z,25.05
2023-02-23T04:57:58.014Z,1.45
2023-02-23T05:00:34.375Z,6.55
2023-02-23T05:03:01.878Z,2.53
2023-02-23T05:05:29.468Z,12.85
2023-02-23T05:07:57.072Z,7.80
2023-02-23T05:10:24.928Z,8.25
2023-02-23T05:12:52.488Z,4.70
2023-02-23T05:15:20.102Z,15.00
2023-02-23T05:17:50.387Z,23.85
2023-02-23T05:20:18.059Z,4.75
2023-02-23T05:22:45.672Z,7.90
2023-02-23T05:25:16.206Z,12.93
2023-02-23T05:27:44.268Z,12.75
2023-02-23T05:30:12.383Z,40.60
2023-02-23T05:32:40.085Z,18.95
2023-02-23T05:35:08.055Z,21.50
2023-02-23T05:37:35.597Z,27.50
2023-02-23T05:40:03.263Z,26.35
2023-02-23T05:42:31.441Z,6.45
2023-02-23T05:44:59.007Z,12.75
2023-02-23T05:47:26.562Z,9.30
2023-02-23T05:49:54.086Z,14.70
2023-02-23T05:52:21.636Z,10.32
2023-02-23T05:54:49.196Z,19.77
2023-02-23T05:57:16.768Z,8.98
2023-02-23T05:59:44.213Z,12.10
2023-02-23T06:02:11.825Z,16.90
2023-02-23T06:04:39.580Z,24.48
2023-02-23T06:07:07.842Z,16.23
2023-02-23T06:09:35.658Z,26.30
2023-02-23T06:12:03.211Z,13.77
2023-02-23T06:14:30.719Z,19.60
2023-02-23T06:16:58.952Z,28.25
2023-02-23T06:19:26.638Z,30.13
2023-02-23T06:21:54.252Z,20.40
2023-02-23T06:24:21.968Z,34.88
2023-02-23T06:26:49.467Z,32.40
2023-02-23T06:29:17.272Z,12.30
2023-02-23T06:31:45.135Z,23.40
2023-02-23T06:34:12.691Z,15.75
2023-02-23T06:36:40.258Z,16.58
2023-02-23T06:39:07.814Z,13.30
2023-02-23T06:41:36.009Z,20.02
2023-02-23T06:44:03.874Z,21.73
2023-02-23T06:46:33.452Z,23.15
2023-02-23T06:49:01.064Z,27.40
2023-02-23T06:51:28.750Z,7.60
2023-02-23T06:53:56.467Z,23.60
2023-02-23T06:56:24.109Z,16.83
2023-02-23T06:58:51.708Z,23.20
2023-02-23T07:01:19.963Z,21.58
2023-02-23T07:03:47.779Z,28.75
2023-02-23T07:06:15.367Z,25.88
2023-02-23T07:08:42.895Z,24.63
2023-02-23T07:11:16.114Z,24.50
2023-02-23T07:13:43.653Z,29.15
2023-02-23T07:16:12.503Z,26.42
2023-02-23T07:18:40.156Z,35.97
2023-02-23T07:21:08.127Z,33.45
2023-02-23T07:23:35.746Z,22.52
2023-02-23T07:26:03.413Z,40.03
2023-02-23T07:28:30.967Z,69.38
2023-02-23T07:30:59.564Z,46.10
2023-02-23T07:33:27.395Z,24.27
2023-02-23T07:35:55.068Z,52.10
2023-02-23T07:38:22.563Z,134.25
2023-02-23T07:40:53.527Z,421.13
2023-02-23T07:43:24.667Z,224.75
2023-02-23T07:45:52.481Z,670.67
2023-02-23T07:48:20.708Z,836.90
2023-02-23T07:50:49.022Z,185.23
2023-02-23T07:53:16.680Z,31.58
2023-02-23T07:55:44.324Z,28.05
2023-02-23T07:58:13.645Z,26.63
2023-02-23T08:00:41.249Z,25.83
2023-02-23T08:03:08.897Z,29.65
2023-02-23T08:05:37.037Z,26.45
2023-02-23T08:08:04.809Z,27.23
2023-02-23T08:10:32.868Z,25.55
2023-02-23T08:13:01.098Z,31.00
2023-02-23T08:15:28.736Z,28.95
2023-02-23T08:17:56.294Z,24.75
2023-02-23T08:20:24.095Z,28.83
2023-02-23T08:22:55.920Z,27.70
2023-02-23T08:25:24.232Z,27.58
2023-02-23T08:27:52.545Z,29.50
2023-02-23T08:30:22.540Z,22.10
2023-02-23T08:32:51.123Z,23.48
2023-02-23T08:35:20.555Z,19.88
2023-02-23T08:37:48.346Z,22.08
2023-02-23T08:40:16.140Z,21.58
2023-02-23T08:42:43.703Z,27.55
2023-02-23T08:45:12.550Z,55.35
2023-02-23T08:47:40.322Z,22.48
2023-02-23T08:50:08.205Z,28.90
2023-02-23T08:52:35.895Z,27.52
2023-02-23T08:55:04.369Z,73.60
2023-02-23T08:57:36.410Z,26.25
2023-02-23T09:00:14.454Z,30.95
2023-02-23T09:02:43.673Z,26.20
2023-02-23T09:05:11.799Z,23.50
2023-02-23T09:07:40.469Z,26.05
2023-02-23T09:10:09.029Z,23.70
2023-02-23T09:12:36.593Z,23.02
2023-02-23T09:15:04.488Z,22.92
2023-02-23T09:17:32.236Z,36.75
2023-02-23T09:19:59.763Z,24.73
2023-02-23T09:22:27.419Z,26.23
2023-02-23T09:24:55.001Z,22.77
2023-02-23T09:27:22.529Z,30.73
2023-02-23T09:29:50.100Z,29.20
2023-02-23T09:32:17.902Z,107.35
2023-02-23T09:34:45.654Z,25.02
2023-02-23T09:37:13.277Z,25.15
2023-02-23T09:39:40.936Z,21.88
2023-02-23T09:42:26.408Z,22.20
2023-02-23T09:45:15.285Z,56.50
2023-02-23T09:48:02.206Z,20.80
2023-02-23T09:50:31.971Z,57.00
2023-02-23T09:53:22.195Z,26.35
2023-02-23T09:55:52.783Z,20.17
2023-02-23T09:58:27.239Z,25.83
2023-02-23T10:01:14.644Z,39.30
2023-02-23T10:03:59.427Z,24.40
2023-02-23T10:06:27.113Z,35.30
2023-02-23T10:09:05.899Z,22.80
2023-02-23T10:11:49.335Z,24.05
2023-02-23T10:17:24.402Z,20.83
2023-02-23T10:20:02.078Z,33.50
2023-02-23T10:22:34.573Z,23.42
2023-02-23T10:25:11.618Z,26.67
2023-02-23T10:27:47.106Z,21.48
2023-02-23T10:30:19.269Z,22.10
2023-02-23T10:33:11.263Z,29.33
2023-02-23T10:35:39.826Z,22.48
2023-02-23T10:38:15.625Z,23.13
2023-02-23T10:40:45.430Z,33.28
2023-02-23T10:43:14.897Z,23.00
2023-02-23T10:45:48.689Z,27.65
2023-02-23T10:48:25.803Z,26.25
2023-02-23T10:50:59.361Z,27.73
2023-02-23T10:53:33.094Z,32.13
2023-02-23T10:56:06.422Z,29.85
2023-02-23T10:58:46.867Z,25.92
2023-02-23T11:01:17.080Z,34.83
2023-02-23T11:23:43.712Z,23.02
2023-02-23T11:26:36.884Z,28.48
2023-02-23T11:29:36.036Z,24.33
2023-02-23T11:32:10.464Z,25.73
2023-02-23T11:34:41.202Z,22.88
2023-02-23T11:37:22.220Z,24.55
2023-02-23T11:39:58.772Z,24.63
2023-02-23T11:42:27.649Z,21.45
2023-02-23T11:45:15.106Z,24.15
2023-02-23T11:47:49.469Z,25.35
2023-02-23T11:50:29.928Z,27.23
2023-02-23T11:53:17.371Z,22.50
2023-02-23T11:55:51.648Z,25.33
2023-02-23T11:58:39.724Z,23.48
2023-02-23T12:01:14.423Z,22.38
2023-02-23T12:03:50.233Z,20.60
2023-02-23T12:06:36.335Z,19.85
2023-02-23T12:09:13.319Z,22.90
2023-02-23T12:11:47.685Z,23.73
2023-02-23T12:14:29.951Z,28.42
2023-02-23T12:17:05.340Z,25.63
2023-02-23T12:19:49.635Z,21.80
2023-02-23T12:22:22.758Z,22.58
2023-02-23T12:25:00.867Z,25.05
2023-02-23T12:27:43.834Z,23.75
2023-02-23T12:30:28.316Z,23.23
2023-02-23T12:32:58.431Z,20.77
2023-02-23T12:35:39.866Z,24.13
2023-02-23T12:38:28.874Z,25.67
2023-02-23T12:41:11.600Z,21.55
2023-02-23T12:43:51.818Z,21.35
2023-02-23T12:46:23.671Z,26.45
2023-02-23T12:49:07.078Z,21.27
2023-02-23T12:51:41.506Z,21.27
2023-02-23T12:54:17.850Z,22.27
2023-02-23T12:56:55.655Z,25.40
2023-02-23T12:59:49.522Z,21.67
2023-02-23T13:02:51.381Z,19.33
2023-02-23T13:05:34.755Z,22.10
2023-02-23T13:08:13.892Z,24.27
2023-02-23T13:11:17.246Z,20.25
2023-02-23T13:13:52.245Z,25.42
2023-02-23T13:16:39.211Z,22.80
2023-02-23T13:19:28.267Z,22.55
2023-02-23T13:22:20.586Z,24.98
2023-02-23T13:24:50.232Z,26.13
2023-02-23T13:27:38.042Z,27.33
2023-02-23T13:30:10.787Z,20.30
2023-02-23T13:32:39.568Z,25.67
2023-02-23T13:35:16.136Z,98.32
2023-02-23T13:38:21.038Z,45.88
2023-02-23T13:40:59.216Z,48.60
2023-02-23T13:43:36.337Z,36.08
2023-02-23T13:46:28.917Z,37.10
2023-02-23T13:49:02.754Z,36.33
2023-02-23T13:51:46.104Z,113.35
2023-02-23T13:54:13.623Z,37.78
2023-02-23T13:56:49.318Z,75.25
2023-02-23T13:59:33.673Z,22.95
2023-02-23T14:02:17.394Z,46.53
2023-02-23T14:04:45.160Z,28.42
2023-02-23T14:07:27.839Z,22.40
2023-02-23T14:10:00.065Z,21.30
2023-02-23T14:13:05.242Z,40.97
2023-02-23T14:15:35.805Z,25.00
2023-02-23T14:18:21.438Z,20.40
2023-02-23T14:21:05.868Z,21.70
2023-02-23T14:23:42.836Z,24.35
2023-02-23T14:26:16.242Z,20.85
2023-02-23T14:29:08.214Z,17.92
2023-02-23T14:31:36.432Z,28.40
2023-02-23T14:34:10.279Z,39.33
2023-02-23T14:36:44.257Z,21.65
2023-02-23T14:41:58.826Z,24.65
2023-02-23T14:44:31.914Z,28.83
2023-02-23T14:47:18.729Z,20.65
2023-02-23T14:50:00.211Z,54.75
2023-02-23T14:52:36.124Z,22.60
2023-02-23T14:55:27.915Z,21.10
2023-02-23T14:57:58.340Z,35.75
2023-02-23T15:00:33.508Z,18.88
2023-02-23T15:03:12.440Z,19.77
2023-02-23T15:05:53.091Z,28.88
2023-02-23T15:08:26.920Z,25.55
2023-02-23T15:11:14.921Z,19.30
2023-02-23T15:13:50.649Z,25.20
2023-02-23T15:16:37.278Z,20.35
2023-02-23T15:19:06.104Z,24.65
2023-02-23T15:21:36.148Z,20.00
2023-02-23T15:24:17.006Z,20.77
2023-02-23T15:26:44.650Z,23.13
2023-02-23T15:29:15.811Z,22.05
2023-02-23T15:31:52.868Z,27.33
2023-02-23T15:34:24.653Z,21.17
2023-02-23T15:36:58.151Z,25.38
2023-02-23T15:39:57.386Z,19.92
2023-02-23T15:42:28.663Z,23.98
2023-02-23T15:45:00.430Z,20.73
2023-02-23T15:47:33.818Z,19.17
2023-02-23T15:50:06.760Z,22.30
2023-02-23T15:52:35.528Z,21.43
2023-02-23T15:55:09.140Z,21.02
2023-02-23T15:58:32.324Z,19.15
2023-02-23T16:01:08.321Z,25.15
2023-02-23T16:03:38.901Z,19.17
2023-02-23T16:06:09.608Z,22.38
2023-02-23T16:08:37.285Z,20.48
2023-02-23T16:11:16.383Z,23.00
2023-02-23T16:13:46.319Z,19.48
2023-02-23T16:16:25.844Z,19.73
2023-02-23T16:19:01.776Z,16.80
2023-02-23T16:21:31.666Z,18.88
2023-02-23T16:24:06.381Z,15.85
2023-02-23T16:27:02.563Z,22.08
2023-02-23T16:29:45.323Z,21.33
2023-02-23T16:32:19.924Z,18.02
2023-02-23T16:35:20.406Z,22.27
2023-02-23T16:38:01.633Z,22.23
2023-02-23T16:40:29.432Z,24.27
2023-02-23T16:43:00.003Z,23.23
2023-02-23T16:45:29.952Z,24.05
2023-02-23T16:48:03.722Z,19.13
2023-02-23T16:50:32.979Z,22.13
2023-02-23T16:53:00.749Z,21.23
2023-02-23T16:55:29.873Z,21.80
2023-02-23T16:58:00.958Z,23.20
2023-02-23T17:00:34.256Z,20.40
2023-02-23T17:03:02.495Z,25.00
2023-02-23T17:05:30.683Z,22.77
2023-02-23T17:07:59.459Z,23.10
2023-02-23T17:10:35.793Z,26.55
2023-02-23T17:13:09.539Z,23.90
2023-02-23T17:15:40.214Z,17.00
2023-02-23T17:18:08.071Z,18.83
2023-02-23T17:20:35.620Z,20.77
2023-02-23T17:23:04.065Z,21.67
2023-02-23T17:25:32.177Z,19.95
2023-02-23T17:28:01.437Z,23.35
2023-02-23T17:30:30.873Z,20.27
2023-02-23T17:33:00.078Z,21.40
2023-02-23T17:35:28.316Z,20.20
2023-02-23T17:37:55.907Z,18.80
2023-02-23T17:40:36.681Z,18.00
2023-02-23T17:43:07.822Z,21.33
2023-02-23T17:45:35.413Z,19.42
2023-02-23T17:48:02.989Z,20.48
2023-02-23T17:50:30.645Z,19.42
2023-02-23T17:52:58.584Z,21.52
2023-02-23T17:55:26.320Z,20.55
2023-02-23T17:57:53.974Z,19.75
2023-02-23T18:00:21.760Z,16.92
2023-02-23T18:02:49.603Z,20.63
2023-02-23T18:05:17.522Z,17.40
2023-02-23T18:07:48.527Z,19.55
2023-02-23T18:10:17.523Z,19.85
2023-02-23T18:12:45.231Z,17.02
2023-02-23T18:15:13.138Z,21.50
2023-02-23T18:17:40.706Z,22.92
2023-02-23T18:20:08.914Z,19.15
2023-02-23T18:22:36.481Z,19.15
2023-02-23T18:25:04.359Z,15.95
2023-02-23T18:27:32.304Z,18.00
2023-02-23T18:30:00.002Z,19.80
2023-02-23T18:32:27.923Z,19.38
2023-02-23T18:34:56.184Z,20.98
2023-02-23T18:37:25.710Z,21.60
2023-02-23T18:39:54.556Z,19.33
2023-02-23T18:42:22.089Z,17.77
2023-02-23T18:44:49.660Z,20.25
2023-02-23T18:47:17.446Z,17.70
2023-02-23T18:49:45.006Z,22.75
2023-02-23T18:52:12.602Z,16.90
2023-02-23T18:54:41.109Z,20.90
2023-02-23T18:57:08.753Z,19.55
2023-02-23T18:59:36.389Z,17.50
2023-02-23T19:02:03.997Z,18.98
2023-02-23T19:04:31.543Z,25.15
2023-02-23T19:06:59.050Z,18.25
2023-02-23T19:09:26.603Z,17.45
2023-02-23T19:11:54.909Z,18.52
2023-02-23T19:14:40.882Z,15.55
2023-02-23T19:17:10.272Z,17.63
2023-02-23T19:19:38.438Z,19.35
2023-02-23T19:22:06.426Z,18.38
2023-02-23T19:24:35.301Z,17.80
2023-02-23T19:27:03.991Z,15.07
2023-02-23T19:29:31.833Z,16.08
2023-02-23T19:31:59.557Z,15.93
2023-02-23T19:34:27.295Z,17.67
2023-02-23T19:36:55.046Z,17.50
2023-02-23T19:39:22.561Z,17.77
2023-02-23T19:41:50.174Z,19.20
2023-02-23T19:44:17.983Z,15.20
2023-02-23T19:46:45.488Z,18.25
2023-02-23T19:49:13.374Z,16.45
2023-02-23T19:51:41.128Z,17.67
2023-02-23T19:54:09.077Z,15.95
2023-02-23T19:56:36.760Z,18.50
2023-02-23T19:59:05.213Z,13.32
2023-02-23T20:01:33.075Z,18.15
2023-02-23T20:04:06.569Z,14.43
2023-02-23T20:06:39.709Z,16.23
2023-02-23T20:09:09.335Z,15.05
2023-02-23T20:11:37.115Z,15.73
2023-02-23T20:14:05.536Z,15.93
2023-02-23T20:16:34.368Z,14.63
2023-02-23T20:19:03.979Z,12.13
2023-02-23T20:21:32.716Z,16.95
2023-02-23T20:24:05.767Z,15.98
2023-02-23T20:26:35.864Z,14.48
2023-02-23T20:29:07.059Z,15.90
2023-02-23T20:31:36.169Z,14.68
2023-02-23T20:34:08.050Z,14.30
2023-02-23T20:36:35.994Z,13.65
2023-02-23T20:39:04.621Z,15.52
2023-02-23T20:41:32.465Z,14.70
2023-02-23T20:44:01.414Z,12.15
2023-02-23T20:46:30.955Z,16.08
2023-02-23T20:48:59.644Z,12.35
2023-02-23T20:51:28.035Z,14.35
2023-02-23T20:53:55.992Z,14.55
2023-02-23T20:56:23.674Z,14.50
2023-02-23T20:58:54.605Z,14.05
2023-02-23T21:01:24.269Z,11.95
2023-02-23T21:03:55.182Z,11.82
2023-02-23T21:06:24.884Z,15.38
2023-02-23T21:08:56.039Z,13.57
2023-02-23T21:11:27.702Z,10.60
2023-02-23T21:13:56.104Z,12.38
2023-02-23T21:16:24.712Z,12.50
2023-02-23T21:19:04.480Z,12.07
2023-02-23T21:21:38.589Z,11.18
2023-02-23T21:24:07.001Z,13.13
2023-02-23T21:26:34.956Z,13.10
2023-02-23T21:29:02.851Z,13.68
2023-02-23T21:31:31.378Z,12.35
2023-02-23T21:33:59.006Z,14.90
2023-02-23T21:36:26.596Z,13.70
2023-02-23T21:38:54.136Z,12.77
2023-02-23T21:41:22.143Z,14.07
2023-02-23T21:43:54.005Z,13.88
2023-02-23T21:46:23.362Z,15.95
2023-02-23T21:48:50.971Z,15.13
2023-02-23T21:51:19.768Z,14.50
2023-02-23T21:53:47.566Z,15.43
2023-02-23T21:56:21.469Z,14.48
2023-02-23T21:58:51.659Z,15.68
2023-02-23T22:01:28.877Z,16.38
2023-02-23T22:03:58.114Z,14.82
2023-02-23T22:06:28.607Z,14.55
2023-02-23T22:08:57.142Z,17.70
2023-02-23T22:11:27.578Z,12.02
2023-02-23T22:14:01.277Z,15.57
2023-02-23T22:16:36.167Z,17.80
2023-02-23T22:19:05.333Z,14.65
2023-02-23T22:21:39.142Z,16.70
2023-02-23T22:26:39.739Z,15.35
2023-02-23T22:29:10.175Z,13.70
2023-02-23T22:31:38.720Z,15.38
2023-02-23T22:34:07.488Z,14.13
2023-02-23T22:36:35.394Z,13.48
2023-02-23T22:39:07.169Z,13.93
2023-02-23T22:41:42.590Z,14.20
2023-02-23T22:44:13.129Z,16.35
2023-02-23T22:46:41.957Z,13.90
2023-02-23T22:49:11.084Z,15.18
2023-02-23T22:51:39.340Z,12.63
2023-02-23T22:54:07.386Z,14.23
2023-02-23T22:56:36.837Z,13.32
2023-02-23T22:59:09.280Z,15.32
2023-02-23T23:01:41.393Z,10.95
2023-02-23T23:04:12.690Z,16.98
2023-02-23T23:06:42.377Z,16.15
2023-02-23T23:09:16.576Z,12.52
2023-02-23T23:11:45.525Z,16.17
2023-02-23T23:14:13.155Z,13.68
2023-02-23T23:16:48.467Z,11.25
2023-02-23T23:19:24.630Z,13.70
2023-02-23T23:21:57.373Z,15.88
2023-02-23T23:24:25.822Z,11.50
2023-02-23T23:27:00.535Z,19.77
2023-02-23T23:29:32.800Z,14.60
2023-02-23T23:32:02.703Z,15.02
2023-02-23T23:34:33.868Z,12.30
2023-02-23T23:37:03.163Z,13.60
2023-02-23T23:39:30.679Z,13.95
2023-02-23T23:41:58.362Z,14.73
2023-02-23T23:44:29.743Z,15.02
2023-02-23T23:46:58.483Z,14.73
2023-02-23T23:49:26.140Z,15.57
2023-02-23T23:51:56.801Z,15.15
2023-02-23T23:54:31.141Z,12.82
2023-02-23T23:57:01.733Z,14.02
2023-02-23T23:59:30.051Z,13.13
